Time;durP1;ratioP1;P1;durP2;ratioP2;P2;SDS_P1;SDS_P2;PMS_P1;PMS_P2;Temp;Humidity;BMP_temperature;BMP_pressure;BME280_temperature;BME280_humidity;BME280_pressure;Samples;Min_cycle;Max_cycle;Signal;HPM_P1;HPM_P2
2022/05/11 00:00:11;;;;;;;4.57;2.22;;;21.30;49.80;;;;;;4948823;28;20055;-62
2022/05/11 00:02:37;;;;;;;3.00;1.98;;;21.30;49.70;;;;;;4947970;29;20046;-63
2022/05/11 00:05:05;;;;;;;3.72;1.90;;;21.30;49.70;;;;;;4949220;28;20446;-60
2022/05/11 00:07:31;;;;;;;5.50;2.10;;;21.30;49.70;;;;;;4947201;28;20039;-60
2022/05/11 00:09:56;;;;;;;3.25;2.08;;;21.30;49.60;;;;;;4947128;28;20049;-59
2022/05/11 00:12:22;;;;;;;3.38;2.00;;;21.30;49.60;;;;;;4948648;29;20658;-61
2022/05/11 00:14:47;;;;;;;4.65;2.00;;;21.30;49.60;;;;;;4948277;29;20464;-59
2022/05/11 00:17:13;;;;;;;4.38;1.98;;;21.30;49.60;;;;;;4948461;28;20054;-60
2022/05/11 00:19:39;;;;;;;2.17;1.77;;;21.30;49.50;;;;;;4947983;28;20550;-59
2022/05/11 00:22:04;;;;;;;4.40;1.83;;;21.30;49.60;;;;;;4948227;28;20537;-60
2022/05/11 00:24:30;;;;;;;2.55;1.60;;;21.30;49.50;;;;;;4947643;28;20081;-60
2022/05/11 00:26:55;;;;;;;3.55;1.90;;;21.30;49.50;;;;;;4947646;29;20071;-60
2022/05/11 00:29:21;;;;;;;6.35;2.03;;;21.30;49.60;;;;;;4948446;28;20071;-59
2022/05/11 00:31:47;;;;;;;2.75;2.00;;;21.30;49.50;;;;;;4948093;28;20598;-59
2022/05/11 00:34:13;;;;;;;2.80;1.50;;;21.30;49.50;;;;;;4947069;28;20043;-59
2022/05/11 00:36:38;;;;;;;3.58;1.90;;;21.30;49.50;;;;;;4948178;28;20439;-60
2022/05/11 00:39:04;;;;;;;2.50;1.83;;;21.30;49.40;;;;;;4946721;28;20047;-62
2022/05/11 00:41:30;;;;;;;2.80;1.80;;;21.30;49.50;;;;;;4948456;28;20039;-62
2022/05/11 00:44:01;;;;;;;3.17;1.63;;;21.30;49.50;;;;;;4947779;28;20047;-63
2022/05/11 00:46:35;;;;;;;3.00;1.80;;;21.30;49.40;;;;;;4948042;28;20047;-60
2022/05/11 00:51:56;;;;;;;2.42;1.67;;;21.30;49.40;;;;;;4947061;28;20039;-60
2022/05/11 00:54:23;;;;;;;3.70;1.70;;;21.30;49.40;;;;;;4947498;29;20039;-61
2022/05/11 00:56:53;;;;;;;3.38;1.60;;;21.30;49.30;;;;;;4947724;28;20054;-59
2022/05/11 00:59:29;;;;;;;4.03;1.90;;;21.30;49.30;;;;;;4947575;29;20058;-60
2022/05/11 01:01:59;;;;;;;2.63;1.67;;;21.30;49.30;;;;;;4946575;29;20047;-59
2022/05/11 01:04:25;;;;;;;3.00;1.98;;;21.30;49.40;;;;;;4947397;28;20043;-62
2022/05/11 01:06:51;;;;;;;2.58;1.50;;;21.30;49.40;;;;;;4946190;28;20042;-61
2022/05/11 01:09:16;;;;;;;1.42;1.33;;;21.20;49.30;;;;;;4947015;28;20047;-60
2022/05/11 01:11:47;;;;;;;2.85;1.60;;;21.30;49.40;;;;;;4947566;28;20094;-59
2022/05/11 01:14:15;;;;;;;2.70;1.52;;;21.30;49.40;;;;;;4946846;28;20039;-59
2022/05/11 01:16:41;;;;;;;1.55;1.27;;;21.20;49.30;;;;;;4946446;28;20094;-58
2022/05/11 01:19:17;;;;;;;2.78;1.60;;;21.30;49.40;;;;;;4947640;28;20131;-59
2022/05/11 01:21:49;;;;;;;2.80;1.70;;;21.30;49.30;;;;;;4946769;28;20078;-61
2022/05/11 01:24:27;;;;;;;2.30;1.50;;;21.20;49.30;;;;;;4946329;29;20134;-60
2022/05/11 01:26:53;;;;;;;2.60;1.60;;;21.20;49.30;;;;;;4947019;29;20133;-59
2022/05/11 01:29:19;;;;;;;1.73;1.38;;;21.20;49.30;;;;;;4944232;28;20502;-59
2022/05/11 01:31:44;;;;;;;2.92;1.60;;;21.20;49.30;;;;;;4946245;28;20034;-60
2022/05/11 01:34:13;;;;;;;2.70;1.40;;;21.20;49.30;;;;;;4946360;28;20051;-60
2022/05/11 01:36:39;;;;;;;1.83;1.50;;;21.30;49.40;;;;;;4944126;28;20853;-59
2022/05/11 01:39:07;;;;;;;2.63;1.55;;;21.20;49.30;;;;;;4945097;28;20057;-59
2022/05/11 01:41:37;;;;;;;4.07;1.60;;;21.20;49.40;;;;;;4944012;29;20047;-60
2022/05/11 01:44:06;;;;;;;1.88;1.75;;;21.20;49.40;;;;;;4945312;29;20142;-60
2022/05/11 01:46:33;;;;;;;6.45;1.83;;;21.20;49.40;;;;;;4943753;29;20466;-60
2022/05/11 01:49:00;;;;;;;2.38;1.55;;;21.20;49.40;;;;;;4943516;29;20075;-60
2022/05/11 01:51:26;;;;;;;2.35;1.40;;;21.20;49.40;;;;;;4943959;28;20415;-59
2022/05/11 01:53:51;;;;;;;2.00;1.60;;;21.20;49.30;;;;;;4944381;28;20442;-59
2022/05/11 01:56:20;;;;;;;2.08;1.38;;;21.20;49.40;;;;;;4943817;29;20050;-60
2022/05/11 01:58:46;;;;;;;2.67;1.55;;;21.20;49.40;;;;;;4946117;28;20595;-60
2022/05/11 02:01:15;;;;;;;2.70;1.58;;;21.20;49.40;;;;;;4940246;28;20387;-60
2022/05/11 02:03:41;;;;;;;3.33;1.70;;;21.20;49.40;;;;;;4942608;29;20420;-61
2022/05/11 02:08:52;;;;;;;2.95;1.70;;;21.20;49.40;;;;;;4943368;29;20389;-61
2022/05/11 02:11:18;;;;;;;1.95;1.38;;;21.20;49.30;;;;;;4944273;29;20102;-60
2022/05/11 02:13:45;;;;;;;2.55;1.63;;;21.20;49.40;;;;;;4942845;29;20416;-60
2022/05/11 02:16:11;;;;;;;2.45;1.40;;;21.20;49.40;;;;;;4945424;28;20079;-60
2022/05/11 02:18:37;;;;;;;2.10;1.35;;;21.20;49.40;;;;;;4945789;28;20170;-59
2022/05/11 02:21:03;;;;;;;1.67;1.15;;;21.20;49.50;;;;;;4943299;29;20062;-59
2022/05/11 02:23:29;;;;;;;2.15;1.33;;;21.20;49.60;;;;;;4946140;28;20043;-61
2022/05/11 02:25:54;;;;;;;1.98;1.55;;;21.20;49.40;;;;;;4946174;29;20440;-61
2022/05/11 02:28:21;;;;;;;2.55;1.38;;;21.20;49.50;;;;;;4945808;29;20075;-59
2022/05/11 02:30:48;;;;;;;3.78;1.60;;;21.20;49.50;;;;;;4945366;28;20047;-60
2022/05/11 02:33:14;;;;;;;2.13;1.27;;;21.20;49.50;;;;;;4945016;28;20051;-60
2022/05/11 02:35:41;;;;;;;2.28;1.52;;;21.20;49.50;;;;;;4946017;29;20511;-60
2022/05/11 02:38:11;;;;;;;3.58;1.58;;;21.20;49.50;;;;;;4945545;28;20517;-61
2022/05/11 02:40:39;;;;;;;2.30;1.33;;;21.20;49.40;;;;;;4947131;28;20047;-60
2022/05/11 02:43:06;;;;;;;1.88;1.48;;;21.20;49.50;;;;;;4949091;29;20134;-60
2022/05/11 02:45:33;;;;;;;2.78;1.60;;;21.20;49.50;;;;;;4949543;28;20043;-60
2022/05/11 02:48:03;;;;;;;1.83;1.42;;;21.20;49.50;;;;;;4949975;28;20487;-60
2022/05/11 02:50:37;;;;;;;1.55;1.20;;;21.20;49.50;;;;;;4950448;29;20062;-59
2022/05/11 02:53:07;;;;;;;2.25;1.50;;;21.20;49.50;;;;;;4950315;29;20044;-60
2022/05/11 02:55:34;;;;;;;2.03;1.30;;;21.20;49.50;;;;;;4948567;28;20086;-60
2022/05/11 02:58:00;;;;;;;2.28;1.20;;;21.10;49.40;;;;;;4948270;28;20051;-59
2022/05/11 03:00:25;;;;;;;2.08;1.38;;;21.10;49.40;;;;;;4948512;28;20039;-59
2022/05/11 03:02:51;;;;;;;1.67;1.45;;;21.20;49.50;;;;;;4949624;28;20456;-59
2022/05/11 03:05:17;;;;;;;1.52;1.30;;;21.20;49.50;;;;;;4964006;28;20426;-59
2022/05/11 03:07:42;;;;;;;1.60;1.30;;;21.20;49.50;;;;;;4950308;28;20478;-60
2022/05/11 03:10:09;;;;;;;1.88;1.13;;;21.10;49.40;;;;;;4949651;29;20031;-59
2022/05/11 03:12:35;;;;;;;1.40;1.30;;;21.20;49.50;;;;;;4948978;28;20039;-62
2022/05/11 03:15:03;;;;;;;2.05;1.02;;;21.10;49.40;;;;;;4948850;28;20498;-60
2022/05/11 03:17:28;;;;;;;1.50;1.25;;;21.10;49.50;;;;;;4949483;28;20055;-60
2022/05/11 03:19:55;;;;;;;1.73;1.23;;;21.10;49.40;;;;;;4949242;28;20043;-61
2022/05/11 03:22:20;;;;;;;3.47;1.30;;;21.10;49.40;;;;;;4948956;29;20784;-60
2022/05/11 03:24:46;;;;;;;2.67;1.27;;;21.10;49.40;;;;;;4948258;28;20047;-62
2022/05/11 03:27:11;;;;;;;2.08;1.40;;;21.10;49.40;;;;;;4947233;28;20047;-60
2022/05/11 03:29:37;;;;;;;1.27;1.17;;;21.20;49.50;;;;;;4949214;28;20106;-61
2022/05/11 03:34:47;;;;;;;3.20;1.40;;;21.10;49.40;;;;;;4948359;29;20062;-60
2022/05/11 03:37:15;;;;;;;1.70;1.38;;;21.10;49.40;;;;;;4949584;29;20051;-59
2022/05/11 03:39:41;;;;;;;2.35;1.27;;;21.10;49.30;;;;;;4948898;29;20051;-59
2022/05/11 03:42:11;;;;;;;1.77;1.45;;;21.10;49.30;;;;;;4949531;28;20058;-61
2022/05/11 03:44:37;;;;;;;1.80;1.00;;;21.10;49.30;;;;;;4948198;29;20470;-61
2022/05/11 03:47:02;;;;;;;2.22;1.20;;;21.10;49.40;;;;;;4948523;28;20119;-59
2022/05/11 03:49:28;;;;;;;2.92;0.98;;;21.10;49.40;;;;;;4948711;29;20039;-62
2022/05/11 03:51:54;;;;;;;2.42;1.20;;;21.10;49.40;;;;;;4947991;28;20098;-60
2022/05/11 03:54:19;;;;;;;2.47;1.25;;;21.10;49.30;;;;;;4947832;28;20074;-61
2022/05/11 03:56:45;;;;;;;1.98;1.20;;;21.10;49.40;;;;;;4949363;28;20046;-59
2022/05/11 03:59:11;;;;;;;2.78;1.67;;;21.10;49.40;;;;;;4949108;28;20055;-59
2022/05/11 04:01:37;;;;;;;1.98;1.10;;;21.10;49.40;;;;;;4944013;28;20051;-60
2022/05/11 04:04:03;;;;;;;1.65;1.13;;;21.10;49.30;;;;;;4944142;29;20049;-59
2022/05/11 04:06:29;;;;;;;1.73;1.23;;;21.10;50.10;;;;;;4946713;28;20043;-59
2022/05/11 04:08:55;;;;;;;1.48;1.20;;;21.10;49.40;;;;;;4947775;28;20487;-59
2022/05/11 04:11:22;;;;;;;2.00;1.23;;;21.10;49.30;;;;;;4953685;28;20047;-60
2022/05/11 04:13:49;;;;;;;1.88;1.20;;;21.10;49.40;;;;;;4947948;29;20122;-59
2022/05/11 04:16:15;;;;;;;1.10;1.00;;;21.10;49.40;;;;;;4948655;28;20515;-59
2022/05/11 04:18:42;;;;;;;1.02;0.93;;;21.10;49.30;;;;;;4947774;28;20130;-59
2022/05/11 04:21:09;;;;;;;1.55;1.30;;;21.10;49.40;;;;;;4946914;28;20070;-59
2022/05/11 04:23:35;;;;;;;1.60;1.20;;;21.10;49.40;;;;;;4948333;29;20038;-60
2022/05/11 04:26:00;;;;;;;2.03;1.20;;;21.10;49.30;;;;;;4947598;29;20440;-59
2022/05/11 04:28:26;;;;;;;1.98;1.20;;;21.10;49.40;;;;;;4947091;29;20050;-60
2022/05/11 04:31:06;;;;;;;1.98;1.20;;;21.10;49.50;;;;;;4945933;29;20046;-59
2022/05/11 04:33:33;;;;;;;2.25;1.17;;;21.10;49.40;;;;;;4949240;28;20039;-60
2022/05/11 04:36:00;;;;;;;1.80;1.10;;;21.10;49.40;;;;;;4946298;29;20151;-60
2022/05/11 04:38:25;;;;;;;1.80;1.33;;;21.10;49.50;;;;;;4946678;29;20428;-59
2022/05/11 04:40:51;;;;;;;1.45;1.20;;;21.10;49.40;;;;;;4947202;29;20054;-59
2022/05/11 04:43:17;;;;;;;1.20;1.08;;;21.10;49.50;;;;;;4948597;28;20487;-59
2022/05/11 04:45:44;;;;;;;3.22;1.33;;;21.10;49.50;;;;;;4948116;28;20492;-60
2022/05/11 04:48:11;;;;;;;3.50;1.50;;;21.10;49.50;;;;;;4947389;28;20054;-61
2022/05/11 04:50:39;;;;;;;2.58;1.30;;;21.10;49.50;;;;;;4946850;28;20056;-60
2022/05/11 04:53:04;;;;;;;2.05;1.40;;;21.10;49.50;;;;;;4947853;28;20472;-60
2022/05/11 04:55:30;;;;;;;3.38;1.38;;;21.10;49.50;;;;;;4947252;29;20058;-60
2022/05/11 04:57:55;;;;;;;1.88;1.17;;;21.10;49.50;;;;;;4947850;29;20050;-60
2022/05/11 05:00:21;;;;;;;1.45;0.80;;;21.10;49.50;;;;;;4947284;28;20047;-61
2022/05/11 05:02:47;;;;;;;2.67;1.30;;;21.10;49.60;;;;;;4947432;28;20051;-62
2022/05/11 05:05:13;;;;;;;1.20;0.90;;;21.10;49.50;;;;;;4947501;28;20043;-62
2022/05/11 05:07:40;;;;;;;1.48;1.10;;;21.10;49.50;;;;;;4947212;29;20073;-60
2022/05/11 05:10:08;;;;;;;2.28;1.20;;;21.10;49.60;;;;;;4940426;28;20039;-60
2022/05/11 05:12:34;;;;;;;1.70;1.13;;;21.10;49.60;;;;;;4947615;28;20054;-60
2022/05/11 05:15:00;;;;;;;2.75;1.38;;;21.10;49.50;;;;;;4947679;29;20372;-60
2022/05/11 05:17:25;;;;;;;1.88;1.30;;;21.10;49.50;;;;;;4945610;28;20130;-60
2022/05/11 05:19:51;;;;;;;1.50;1.40;;;21.10;49.50;;;;;;4947461;28;20109;-61
2022/05/11 05:22:18;;;;;;;0.80;0.80;;;21.10;49.60;;;;;;4948199;28;20051;-60
2022/05/11 05:24:44;;;;;;;1.67;1.23;;;21.10;49.70;;;;;;4944814;28;20474;-60
2022/05/11 05:27:12;;;;;;;5.03;1.45;;;21.10;49.60;;;;;;4944510;28;20447;-60
2022/05/11 05:32:22;;;;;;;3.50;1.58;;;21.10;49.50;;;;;;4947096;28;20050;-62
2022/05/11 05:34:47;;;;;;;2.47;1.35;;;21.00;49.90;;;;;;4944812;28;20051;-63
2022/05/11 05:37:14;;;;;;;2.88;1.48;;;21.10;49.50;;;;;;4947442;28;20051;-59
2022/05/11 05:39:40;;;;;;;2.33;1.25;;;21.00;49.50;;;;;;4946864;29;20043;-59
2022/05/11 05:42:06;;;;;;;2.65;1.40;;;21.00;49.50;;;;;;4946278;28;20035;-60
2022/05/11 05:44:32;;;;;;;4.72;1.73;;;21.00;50.20;;;;;;4944275;29;20042;-59
2022/05/11 05:47:05;;;;;;;3.25;1.70;;;21.00;49.50;;;;;;4940319;28;20035;-61
2022/05/11 05:49:31;;;;;;;5.03;1.92;;;21.00;49.70;;;;;;4945706;28;20039;-59
2022/05/11 05:51:58;;;;;;;3.63;1.98;;;21.00;49.60;;;;;;4946839;28;20043;-60
2022/05/11 05:54:25;;;;;;;3.67;1.77;;;21.00;49.50;;;;;;4945801;29;20057;-60
2022/05/11 05:56:51;;;;;;;3.67;2.03;;;21.00;49.40;;;;;;4946729;28;20415;-60
2022/05/11 05:59:18;;;;;;;3.70;1.98;;;21.00;49.30;;;;;;4946033;29;20094;-60
2022/05/11 06:01:43;;;;;;;5.10;2.20;;;21.00;49.40;;;;;;4946459;28;20043;-60
2022/05/11 06:04:09;;;;;;;4.20;2.33;;;21.10;49.40;;;;;;4945339;28;20035;-60
2022/05/11 06:06:34;;;;;;;5.07;2.40;;;21.00;49.30;;;;;;4946744;28;20582;-59
2022/05/11 06:09:00;;;;;;;3.88;1.95;;;21.00;49.50;;;;;;4945751;28;20047;-60
2022/05/11 06:11:26;;;;;;;3.13;2.10;;;21.00;49.60;;;;;;4946245;28;20055;-62
2022/05/11 06:13:51;;;;;;;4.95;2.40;;;21.00;49.50;;;;;;4947159;28;20505;-60
2022/05/11 06:16:17;;;;;;;4.47;2.30;;;21.00;49.70;;;;;;4948455;28;20676;-59
2022/05/11 06:18:44;;;;;;;4.32;2.08;;;21.00;49.70;;;;;;4949922;28;20039;-60
2022/05/11 06:21:12;;;;;;;3.42;2.35;;;21.00;49.70;;;;;;4949699;29;20460;-59
2022/05/11 06:23:38;;;;;;;4.45;2.33;;;21.00;49.80;;;;;;4949375;28;20086;-60
2022/05/11 06:26:04;;;;;;;7.07;3.22;;;21.00;49.80;;;;;;4950601;29;20134;-60
2022/05/11 06:28:30;;;;;;;3.22;2.33;;;21.00;49.80;;;;;;4950204;28;20074;-59
2022/05/11 06:30:56;;;;;;;6.80;2.83;;;21.00;49.90;;;;;;4948336;28;20101;-60
2022/05/11 06:33:21;;;;;;;5.28;2.28;;;21.00;49.80;;;;;;4950246;28;20035;-60
2022/05/11 06:35:47;;;;;;;5.63;2.50;;;21.00;49.50;;;;;;4949222;28;20063;-62
2022/05/11 06:38:13;;;;;;;5.15;1.80;;;20.90;49.30;;;;;;4950096;28;20059;-61
2022/05/11 06:40:40;;;;;;;5.10;1.92;;;20.90;49.20;;;;;;4948825;29;20055;-61
2022/05/11 06:43:05;;;;;;;6.50;2.20;;;21.00;49.20;;;;;;4949895;29;20054;-60
2022/05/11 06:45:32;;;;;;;4.47;1.73;;;20.90;49.00;;;;;;4948110;28;20040;-60
2022/05/11 06:47:58;;;;;;;3.78;1.75;;;20.90;48.90;;;;;;4951033;28;20039;-64
2022/05/11 06:50:26;;;;;;;3.00;1.50;;;21.00;48.90;;;;;;4949902;29;20479;-60
2022/05/11 06:52:52;;;;;;;4.10;1.50;;;21.00;49.20;;;;;;4950308;29;20094;-58
2022/05/11 07:01:03;;;;;;;3.28;1.30;;;21.00;48.90;;;;;;4948232;28;20134;-60
2022/05/11 07:03:28;;;;;;;2.80;1.50;;;21.00;49.10;;;;;;4949683;28;20130;-58
2022/05/11 07:05:54;;;;;;;3.47;1.27;;;21.00;49.00;;;;;;4948067;28;20434;-60
2022/05/11 07:08:19;;;;;;;3.08;1.27;;;21.10;48.90;;;;;;4950247;28;20534;-58
2022/05/11 07:12:17;;;;;;;3.53;1.35;;;21.00;49.10;;;;;;4948234;28;20372;-58
2022/05/11 07:13:31;;;;;;;5.55;1.55;;;21.00;49.00;;;;;;4945477;29;20447;-58
2022/05/11 07:15:57;;;;;;;4.20;1.25;;;21.00;49.30;;;;;;4945943;28;20102;-59
2022/05/11 07:18:23;;;;;;;4.07;1.48;;;21.10;49.60;;;;;;4950936;28;20050;-58
2022/05/11 07:20:48;;;;;;;3.92;1.05;;;21.00;49.60;;;;;;4947821;28;20039;-58
2022/05/11 07:23:14;;;;;;;2.55;1.20;;;21.10;49.50;;;;;;4948456;28;20487;-58
2022/05/11 07:25:40;;;;;;;4.47;1.35;;;21.10;49.60;;;;;;4947477;28;20047;-58
2022/05/11 07:28:05;;;;;;;7.00;1.15;;;21.10;49.60;;;;;;4947688;28;20192;-59
2022/05/11 07:30:34;;;;;;;4.70;1.45;;;21.10;49.50;;;;;;4946987;29;20075;-62
2022/05/11 07:33:02;;;;;;;3.70;1.13;;;21.10;49.60;;;;;;4948842;28;20114;-62
2022/05/11 07:35:28;;;;;;;3.55;1.30;;;21.10;49.20;;;;;;4945956;29;20114;-59
2022/05/11 07:37:54;;;;;;;3.58;1.30;;;21.10;49.20;;;;;;4961964;28;20039;-59
2022/05/11 07:40:21;;;;;;;2.63;0.90;;;21.10;49.40;;;;;;4947180;28;20054;-59
2022/05/11 07:42:47;;;;;;;3.20;1.20;;;21.10;49.20;;;;;;4947768;28;20439;-60
2022/05/11 07:45:15;;;;;;;3.45;1.20;;;21.10;49.10;;;;;;4948296;28;20047;-60
2022/05/11 07:47:41;;;;;;;3.53;1.02;;;21.10;49.10;;;;;;4943767;28;20058;-59
2022/05/11 07:50:08;;;;;;;3.28;1.02;;;21.10;49.10;;;;;;4947484;28;20487;-59
2022/05/11 07:52:33;;;;;;;2.03;1.20;;;21.10;49.20;;;;;;4947076;29;20447;-59
2022/05/11 07:54:59;;;;;;;4.80;1.20;;;21.10;50.00;;;;;;4948591;28;20047;-58
2022/05/11 08:00:09;;;;;;;2.47;1.17;;;21.10;49.00;;;;;;4948494;29;20062;-61
2022/05/11 08:02:39;;;;;;;4.43;1.45;;;21.10;49.00;;;;;;4948962;28;20507;-60
2022/05/11 08:05:08;;;;;;;1.80;1.08;;;21.10;49.00;;;;;;4948638;28;20118;-58
2022/05/11 08:07:40;;;;;;;3.85;1.10;;;21.10;49.00;;;;;;4944599;29;20043;-60
2022/05/11 08:10:07;;;;;;;1.67;0.82;;;21.10;50.10;;;;;;4948447;29;20039;-61
2022/05/11 08:12:32;;;;;;;3.60;1.17;;;21.10;49.10;;;;;;4948129;29;20043;-62
2022/05/11 08:14:58;;;;;;;3.25;1.00;;;21.10;49.30;;;;;;4949779;28;20860;-61
2022/05/11 08:17:34;;;;;;;2.55;1.05;;;21.10;49.20;;;;;;4948416;29;20051;-62
2022/05/11 08:20:00;;;;;;;1.80;0.98;;;21.10;49.60;;;;;;4949303;28;20054;-60
2022/05/11 08:22:27;;;;;;;3.72;1.27;;;21.10;49.90;;;;;;4946946;28;20534;-58
2022/05/11 08:24:54;;;;;;;2.50;1.00;;;21.10;49.60;;;;;;4947899;29;20036;-60
2022/05/11 08:27:23;;;;;;;3.75;1.35;;;21.10;49.60;;;;;;4948246;29;20070;-63
2022/05/11 08:35:19;;;;;;;2.15;1.00;;;21.10;49.60;;;;;;4947745;29;20600;-63
2022/05/11 08:37:46;;;;;;;2.58;1.10;;;21.10;49.40;;;;;;4946296;28;20043;-58
2022/05/11 08:40:27;;;;;;;2.97;1.00;;;21.10;49.50;;;;;;4948187;28;20043;-59
2022/05/11 08:42:53;;;;;;;;;;;21.10;49.60;;;;;;4947499;29;20035;-58
2022/05/11 08:45:19;;;;;;;1.33;0.70;;;21.10;49.80;;;;;;4947422;29;19973;-60
2022/05/11 08:47:48;;;;;;;4.22;1.58;;;21.10;49.90;;;;;;4947270;28;20039;-58
2022/05/11 08:50:29;;;;;;;2.20;1.00;;;21.10;50.00;;;;;;4945457;28;20118;-60
2022/05/11 08:52:59;;;;;;;1.95;0.80;;;21.10;49.90;;;;;;4937212;28;20043;-59
2022/05/11 08:55:40;;;;;;;4.13;1.27;;;21.10;50.00;;;;;;4941609;28;20051;-61
2022/05/11 08:58:12;;;;;;;2.28;1.00;;;21.10;49.90;;;;;;4943599;28;20122;-59
2022/05/11 09:00:41;;;;;;;3.10;0.90;;;21.10;49.80;;;;;;4944905;29;20087;-61
2022/05/11 09:03:17;;;;;;;3.20;1.30;;;21.10;49.90;;;;;;4942924;28;20309;-58
2022/05/11 09:05:43;;;;;;;1.67;0.90;;;21.20;50.00;;;;;;4944156;28;20407;-61
2022/05/11 09:08:11;;;;;;;2.80;1.10;;;21.20;50.00;;;;;;4943548;28;20249;-59
2022/05/11 09:10:38;;;;;;;3.72;1.23;;;21.10;49.90;;;;;;4944784;28;20118;-59
2022/05/11 09:13:09;;;;;;;4.28;0.90;;;21.20;50.00;;;;;;4943144;28;20031;-59
2022/05/11 09:15:51;;;;;;;4.78;1.90;;;21.10;50.00;;;;;;4943992;29;20133;-59
2022/05/11 09:18:17;;;;;;;2.13;1.00;;;21.20;50.10;;;;;;4944206;28;20039;-60
2022/05/11 09:20:52;;;;;;;3.13;1.10;;;21.20;50.10;;;;;;4944806;28;20514;-59
2022/05/11 09:23:50;;;;;;;2.85;1.15;;;21.20;50.00;;;;;;4944608;29;20091;-59
2022/05/11 09:26:30;;;;;;;4.50;1.08;;;21.20;49.90;;;;;;4940050;29;20047;-58
2022/05/11 09:29:19;;;;;;;1.45;0.80;;;21.20;49.90;;;;;;4943097;29;20039;-60
2022/05/11 09:31:47;;;;;;;4.00;1.10;;;21.20;49.90;;;;;;4945708;28;20047;-59
2022/05/11 09:34:24;;;;;;;3.33;1.15;;;21.20;49.90;;;;;;4941571;28;20399;-63
2022/05/11 09:36:58;;;;;;;4.25;0.90;;;21.20;49.90;;;;;;4945676;29;20070;-61
2022/05/11 09:39:25;;;;;;;2.88;0.90;;;21.20;49.90;;;;;;4941587;29;20130;-60
2022/05/11 09:41:52;;;;;;;5.13;0.95;;;21.20;49.90;;;;;;4945328;29;20439;-58
2022/05/11 09:44:23;;;;;;;2.20;0.77;;;21.20;49.80;;;;;;4942027;29;20058;-60
2022/05/11 09:46:50;;;;;;;;;;;21.20;49.90;;;;;;4945455;28;20031;-61
2022/05/11 09:49:15;;;;;;;2.33;1.13;;;21.20;49.80;;;;;;4942563;28;19930;-59
2022/05/11 09:51:47;;;;;;;3.78;1.00;;;21.20;50.00;;;;;;4942054;28;20039;-59
2022/05/11 09:54:20;;;;;;;2.28;0.88;;;21.20;49.90;;;;;;4942038;28;20043;-58
2022/05/11 09:56:49;;;;;;;3.60;0.82;;;21.20;49.80;;;;;;4943379;29;20604;-59
2022/05/11 09:59:37;;;;;;;5.15;0.90;;;21.20;49.70;;;;;;4944283;28;20073;-60
2022/05/11 10:02:22;;;;;;;3.35;0.85;;;21.20;49.70;;;;;;4958167;28;20047;-60
2022/05/11 10:04:58;;;;;;;2.42;0.93;;;21.20;49.60;;;;;;4942947;28;20110;-59
2022/05/11 10:07:26;;;;;;;2.70;0.80;;;21.20;49.60;;;;;;4944841;28;20039;-59
2022/05/11 10:10:05;;;;;;;1.80;0.70;;;21.20;49.50;;;;;;4941453;28;20109;-61
2022/05/11 10:12:36;;;;;;;3.92;0.95;;;21.20;50.20;;;;;;4945462;28;20130;-59
2022/05/11 10:23:47;;;;;;;4.70;1.05;;;21.20;46.60;;;;;;4946044;28;21085;-59
2022/05/11 10:26:28;;;;;;;4.95;1.00;;;21.20;45.60;;;;;;4945617;29;20050;-62
2022/05/11 10:29:39;;;;;;;4.55;0.95;;;21.20;44.40;;;;;;4945715;28;20043;-60
2022/05/11 10:32:09;;;;;;;4.65;1.15;;;21.10;44.00;;;;;;4945037;28;20130;-62
2022/05/11 10:34:53;;;;;;;5.28;1.17;;;21.00;44.40;;;;;;4946245;28;20062;-58
2022/05/11 10:37:24;;;;;;;5.50;1.17;;;21.00;44.00;;;;;;4945290;29;20078;-60
2022/05/11 10:40:08;;;;;;;4.13;1.13;;;21.00;43.90;;;;;;4944443;28;20372;-59
2022/05/11 10:42:43;;;;;;;4.50;1.20;;;21.00;43.90;;;;;;4944441;28;20357;-60
2022/05/11 10:45:17;;;;;;;4.10;0.98;;;21.00;44.00;;;;;;4944827;28;20058;-59
2022/05/11 10:48:05;;;;;;;5.50;1.00;;;21.00;44.10;;;;;;4944383;29;20035;-59
2022/05/11 10:50:54;;;;;;;5.90;1.67;;;21.00;44.40;;;;;;4945476;28;20050;-58
2022/05/11 10:53:25;;;;;;;5.88;1.60;;;21.00;43.90;;;;;;4946810;29;20113;-61
2022/05/11 10:56:06;;;;;;;4.43;1.90;;;21.00;43.60;;;;;;4944688;29;20105;-60
2022/05/11 10:59:05;;;;;;;7.80;1.85;;;21.00;43.70;;;;;;4946156;29;20055;-60
2022/05/11 11:01:56;;;;;;;3.80;1.13;;;21.00;43.90;;;;;;4945126;28;20042;-59
2022/05/11 11:04:48;;;;;;;3.07;0.90;;;21.00;43.80;;;;;;4946851;28;20049;-61
2022/05/11 11:07:36;;;;;;;7.57;1.48;;;21.00;43.90;;;;;;4949019;29;20082;-60
2022/05/11 11:10:13;;;;;;;7.80;1.52;;;21.00;43.30;;;;;;4948805;28;20047;-61
2022/05/11 11:13:03;;;;;;;5.85;1.33;;;21.00;43.00;;;;;;4948288;28;20043;-61
2022/05/11 11:15:32;;;;;;;3.72;0.95;;;21.00;42.90;;;;;;4948343;29;20054;-60
2022/05/11 11:17:59;;;;;;;3.42;1.50;;;20.90;42.80;;;;;;4948002;29;20079;-61
2022/05/11 11:20:26;;;;;;;4.30;1.40;;;20.90;42.70;;;;;;4948759;28;20571;-60
2022/05/11 11:23:12;;;;;;;5.32;1.08;;;20.90;43.10;;;;;;4947881;28;20447;-58
2022/05/11 11:26:06;;;;;;;4.53;1.00;;;21.00;42.70;;;;;;4947405;29;20629;-60
2022/05/11 11:28:52;;;;;;;6.65;1.40;;;20.90;43.00;;;;;;4948472;28;20380;-58
2022/05/11 11:31:20;;;;;;;5.22;1.50;;;20.90;43.60;;;;;;4948716;28;20380;-58
2022/05/11 11:34:04;;;;;;;4.03;1.10;;;20.90;44.00;;;;;;4962689;28;20623;-60
2022/05/11 11:36:36;;;;;;;9.63;1.33;;;20.90;44.30;;;;;;4942475;28;20379;-59
2022/05/11 11:39:08;;;;;;;5.03;1.50;;;20.90;44.70;;;;;;4946378;28;20079;-59
2022/05/11 11:42:01;;;;;;;4.25;1.70;;;21.00;45.00;;;;;;4948375;28;20041;-58
2022/05/11 11:44:32;;;;;;;6.03;1.58;;;21.00;44.50;;;;;;4944478;29;20057;-59
2022/05/11 11:47:21;;;;;;;4.90;1.20;;;21.00;44.50;;;;;;4946711;28;20777;-59
2022/05/11 11:49:46;;;;;;;6.18;1.33;;;21.00;44.50;;;;;;4947079;28;20042;-62
2022/05/11 11:52:34;;;;;;;4.45;1.27;;;21.00;44.60;;;;;;4946304;28;20436;-59
2022/05/11 11:55:00;;;;;;;3.63;1.33;;;21.10;44.70;;;;;;4948315;28;20058;-60
2022/05/11 11:57:25;;;;;;;2.53;0.75;;;21.10;44.70;;;;;;4948284;28;20492;-59
2022/05/11 11:59:53;;;;;;;6.85;1.15;;;21.10;44.70;;;;;;4946455;28;20050;-59
2022/05/11 12:02:44;;;;;;;4.63;1.33;;;21.10;44.70;;;;;;4948073;29;20047;-59
2022/05/11 12:05:13;;;;;;;4.72;0.90;;;21.10;44.70;;;;;;4947515;28;20035;-59
2022/05/11 12:16:30;;;;;;;4.35;1.08;;;21.10;45.00;;;;;;4947099;29;20055;-61
2022/05/11 12:19:14;;;;;;;3.15;1.10;;;21.10;45.10;;;;;;4945944;29;20098;-62
2022/05/11 12:21:52;;;;;;;3.28;0.90;;;21.20;45.20;;;;;;4960670;28;20063;-59
2022/05/11 12:24:48;;;;;;;3.15;0.90;;;21.20;45.20;;;;;;4944538;28;20086;-61
2022/05/11 12:27:27;;;;;;;3.65;0.90;;;21.20;45.50;;;;;;4943240;29;20081;-59
2022/05/11 12:29:59;;;;;;;2.92;1.00;;;21.20;45.50;;;;;;4947236;29;20040;-60
2022/05/11 12:32:25;;;;;;;3.80;1.10;;;21.20;45.60;;;;;;4946788;28;20418;-60
2022/05/11 12:34:51;;;;;;;3.65;1.02;;;21.20;45.50;;;;;;4946380;28;20142;-62
2022/05/11 12:37:29;;;;;;;7.28;1.48;;;21.20;45.60;;;;;;4945819;28;20055;-63
2022/05/11 12:40:06;;;;;;;4.43;1.00;;;21.20;45.70;;;;;;4945727;29;20039;-61
2022/05/11 12:42:47;;;;;;;4.38;1.00;;;21.20;45.70;;;;;;4947052;29;20043;-60
2022/05/11 12:45:17;;;;;;;7.03;1.30;;;21.20;46.00;;;;;;4946657;28;20043;-59
2022/05/11 12:47:49;;;;;;;2.92;0.85;;;21.20;46.00;;;;;;4948674;28;20066;-59
2022/05/11 12:50:23;;;;;;;2.35;0.80;;;21.20;46.00;;;;;;4947795;28;20062;-61
2022/05/11 12:53:15;;;;;;;2.83;0.90;;;21.30;46.00;;;;;;4947493;29;20039;-60
2022/05/11 12:55:43;;;;;;;5.75;1.10;;;21.30;46.10;;;;;;4939894;28;20078;-59
2022/05/11 12:58:20;;;;;;;5.10;1.33;;;21.20;46.00;;;;;;4948224;29;20047;-59
2022/05/11 13:00:46;;;;;;;8.20;1.38;;;21.30;46.00;;;;;;4946506;29;20047;-59
2022/05/11 13:03:24;;;;;;;3.30;1.00;;;21.30;45.90;;;;;;4944831;29;20043;-59
2022/05/11 13:05:53;;;;;;;5.15;1.00;;;21.30;45.90;;;;;;4944871;28;20036;-59
2022/05/11 13:08:19;;;;;;;3.17;0.82;;;21.30;46.10;;;;;;4944543;29;20047;-59
2022/05/11 13:10:47;;;;;;;3.83;0.95;;;21.30;46.40;;;;;;4947421;28;20070;-58
2022/05/11 13:13:29;;;;;;;4.07;0.90;;;21.30;46.60;;;;;;4945296;28;20035;-61
2022/05/11 13:16:11;;;;;;;4.68;1.23;;;21.30;47.00;;;;;;4944141;29;20122;-59
2022/05/11 13:18:38;;;;;;;5.13;1.05;;;21.30;47.10;;;;;;4946282;28;20043;-58
2022/05/11 13:21:07;;;;;;;4.30;1.42;;;21.40;47.40;;;;;;4946475;28;20058;-60
2022/05/11 13:23:34;;;;;;;2.45;0.80;;;21.40;47.70;;;;;;4947130;28;20051;-59
2022/05/11 13:26:09;;;;;;;3.53;0.70;;;21.40;47.60;;;;;;4942209;28;20043;-58
2022/05/11 13:28:53;;;;;;;3.78;1.27;;;21.40;47.90;;;;;;4945756;29;20039;-58
2022/05/11 13:31:25;;;;;;;3.28;0.90;;;21.40;48.10;;;;;;4943192;28;20051;-59
2022/05/11 13:33:50;;;;;;;2.58;0.98;;;21.40;48.30;;;;;;4945757;28;20035;-58
2022/05/11 13:36:22;;;;;;;5.80;1.13;;;21.40;48.40;;;;;;4946102;28;20046;-58
2022/05/11 13:38:57;;;;;;;3.45;1.08;;;21.50;48.50;;;;;;4945981;28;20423;-61
2022/05/11 13:41:29;;;;;;;3.00;1.08;;;21.50;48.60;;;;;;4941347;28;20066;-60
2022/05/11 13:43:58;;;;;;;3.30;1.05;;;21.50;49.00;;;;;;4945917;29;20074;-60